createdAt,value
2023-02-17T00:00:39.483Z,13.40
2023-02-17T00:02:41.440Z,13.41
2023-02-17T00:04:43.408Z,13.42
2023-02-17T00:06:45.469Z,13.52
2023-02-17T00:08:48.084Z,13.49
2023-02-17T00:10:56.682Z,13.44
2023-02-17T00:12:58.763Z,13.30
2023-02-17T00:15:00.754Z,13.24
2023-02-17T00:17:02.683Z,13.40
2023-02-17T00:19:25.065Z,13.44
2023-02-17T00:21:29.966Z,13.51
2023-02-17T00:23:31.870Z,13.48
2023-02-17T00:25:33.855Z,13.56
2023-02-17T00:27:35.832Z,13.40
2023-02-17T00:29:38.017Z,13.42
2023-02-17T00:31:40.070Z,13.52
2023-02-17T00:33:42.354Z,13.55
2023-02-17T00:35:44.346Z,13.60
2023-02-17T00:37:46.369Z,13.74
2023-02-17T00:39:48.514Z,13.78
2023-02-17T00:41:50.571Z,13.84
2023-02-17T00:43:52.630Z,13.90
2023-02-17T00:45:54.668Z,13.85
2023-02-17T00:47:56.672Z,13.89
2023-02-17T00:49:58.588Z,13.89
2023-02-17T00:52:02.701Z,13.74
2023-02-17T00:54:04.786Z,13.82
2023-02-17T00:56:07.818Z,13.71
2023-02-17T00:58:10.012Z,13.84
2023-02-17T01:00:12.716Z,13.78
2023-02-17T01:02:14.803Z,13.69
2023-02-17T01:04:16.756Z,13.69
2023-02-17T01:06:24.880Z,13.64
2023-02-17T01:08:26.862Z,13.80
2023-02-17T01:10:28.864Z,13.80
2023-02-17T01:12:30.857Z,13.83
2023-02-17T01:14:32.832Z,13.77
2023-02-17T01:16:38.858Z,13.66
2023-02-17T01:18:40.790Z,13.61
2023-02-17T01:20:43.201Z,13.52
2023-02-17T01:22:45.160Z,13.56
2023-02-17T01:24:47.152Z,13.56
2023-02-17T01:26:49.176Z,13.62
2023-02-17T01:28:52.519Z,13.57
2023-02-17T01:30:54.525Z,13.48
2023-02-17T01:32:56.495Z,13.49
2023-02-17T01:34:58.642Z,13.50
2023-02-17T01:37:00.664Z,13.57
2023-02-17T01:39:02.687Z,13.58
2023-02-17T01:41:05.734Z,13.59
2023-02-17T01:43:16.592Z,13.57
2023-02-17T01:45:19.297Z,13.71
2023-02-17T01:47:21.276Z,13.76
2023-02-17T01:49:25.092Z,13.69
2023-02-17T01:51:31.426Z,13.73
2023-02-17T01:53:40.409Z,13.75
2023-02-17T01:55:43.371Z,13.79
2023-02-17T01:57:46.953Z,13.72
2023-02-17T01:59:49.338Z,13.74
2023-02-17T02:01:57.271Z,13.78
2023-02-17T02:04:01.266Z,13.77
2023-02-17T02:06:09.005Z,13.69
2023-02-17T02:08:12.455Z,13.69
2023-02-17T02:10:17.927Z,13.74
2023-02-17T02:12:24.980Z,13.78
2023-02-17T02:14:27.926Z,13.74
2023-02-17T02:16:42.788Z,13.86
2023-02-17T02:18:56.829Z,13.80
2023-02-17T02:20:59.557Z,13.79
2023-02-17T02:23:07.710Z,13.69
2023-02-17T02:25:15.917Z,13.71
2023-02-17T02:27:28.993Z,13.62
2023-02-17T02:29:46.209Z,13.65
2023-02-17T02:31:54.474Z,13.68
2023-02-17T02:34:01.636Z,13.69
2023-02-17T02:36:11.100Z,13.75
2023-02-17T02:38:18.365Z,13.70
2023-02-17T02:40:26.003Z,13.82
2023-02-17T02:42:28.795Z,13.56
2023-02-17T02:44:30.925Z,13.69
2023-02-17T02:46:32.893Z,13.73
2023-02-17T02:48:35.497Z,13.84
2023-02-17T02:50:40.936Z,13.82
2023-02-17T02:52:47.429Z,13.75
2023-02-17T02:54:52.811Z,13.72
2023-02-17T02:57:04.993Z,13.82
2023-02-17T02:59:10.423Z,13.81
2023-02-17T03:01:21.080Z,13.91
2023-02-17T03:03:37.364Z,13.98
2023-02-17T03:05:49.640Z,14.00
2023-02-17T03:07:59.139Z,14.01
2023-02-17T03:10:01.815Z,14.02
2023-02-17T03:12:04.260Z,14.08
2023-02-17T03:14:11.081Z,13.93
2023-02-17T03:16:14.900Z,14.02
2023-02-17T03:18:16.960Z,14.04
2023-02-17T03:20:19.066Z,14.08
2023-02-17T03:22:24.252Z,13.96
2023-02-17T03:24:26.346Z,14.08
2023-02-17T03:26:28.393Z,14.02
2023-02-17T03:28:30.502Z,14.02
2023-02-17T03:30:32.638Z,14.04
2023-02-17T03:32:34.889Z,14.09
2023-02-17T03:34:36.891Z,14.01
2023-02-17T03:36:38.799Z,13.98
2023-02-17T03:38:40.803Z,13.99
2023-02-17T03:40:42.742Z,14.01
2023-02-17T03:42:44.669Z,14.05
2023-02-17T03:44:46.692Z,14.06
2023-02-17T03:46:48.734Z,14.13
2023-02-17T03:48:50.740Z,14.10
2023-02-17T03:50:52.871Z,14.01
2023-02-17T03:52:54.872Z,14.02
2023-02-17T03:54:56.857Z,13.92
2023-02-17T03:56:59.723Z,13.98
2023-02-17T03:59:01.680Z,14.00
2023-02-17T04:01:04.539Z,14.07
2023-02-17T04:03:06.576Z,14.03
2023-02-17T04:05:08.826Z,14.07
2023-02-17T04:07:10.804Z,14.08
2023-02-17T04:09:12.782Z,13.93
2023-02-17T04:11:14.757Z,13.94
2023-02-17T04:13:16.728Z,14.03
2023-02-17T04:15:18.765Z,14.02
2023-02-17T04:17:20.749Z,14.01
2023-02-17T04:19:22.798Z,14.10
2023-02-17T04:21:24.754Z,14.01
2023-02-17T04:23:26.973Z,13.96
2023-02-17T04:25:28.943Z,14.10
2023-02-17T04:27:30.891Z,14.08
2023-02-17T04:29:33.813Z,14.10
2023-02-17T04:31:36.088Z,14.06
2023-02-17T04:33:38.168Z,14.11
2023-02-17T04:35:40.846Z,14.10
2023-02-17T04:37:42.923Z,14.11
2023-02-17T04:39:45.005Z,13.99
2023-02-17T04:41:46.988Z,14.14
2023-02-17T04:43:48.940Z,13.81
2023-02-17T04:45:51.218Z,14.05
2023-02-17T04:47:53.200Z,14.01
2023-02-17T04:49:55.130Z,13.98
2023-02-17T04:51:57.169Z,14.05
2023-02-17T04:53:59.065Z,14.02
2023-02-17T04:56:01.106Z,13.98
2023-02-17T04:58:03.078Z,13.99
2023-02-17T05:00:06.449Z,13.99
2023-02-17T05:02:08.449Z,14.00
2023-02-17T05:04:10.471Z,14.00
2023-02-17T05:06:12.389Z,14.07
2023-02-17T05:08:14.409Z,14.08
2023-02-17T05:10:17.816Z,14.02
2023-02-17T05:12:20.088Z,13.98
2023-02-17T05:14:22.014Z,14.05
2023-02-17T05:16:24.004Z,14.00
2023-02-17T05:18:26.046Z,13.91
2023-02-17T05:20:28.162Z,14.03
2023-02-17T05:22:30.133Z,14.07
2023-02-17T05:24:32.260Z,13.87
2023-02-17T05:26:34.227Z,13.64
2023-02-17T05:28:37.394Z,13.90
2023-02-17T05:30:39.366Z,14.00
2023-02-17T05:32:41.295Z,13.83
2023-02-17T05:34:43.507Z,13.75
2023-02-17T05:36:45.471Z,13.77
2023-02-17T05:38:49.960Z,13.96
2023-02-17T05:40:51.921Z,13.92
2023-02-17T05:42:53.895Z,13.80
2023-02-17T05:44:56.721Z,13.86
2023-02-17T05:46:58.675Z,13.84
2023-02-17T05:49:00.645Z,13.92
2023-02-17T05:51:02.679Z,13.57
2023-02-17T05:53:04.676Z,13.80
2023-02-17T05:55:07.161Z,13.82
2023-02-17T05:57:09.228Z,13.81
2023-02-17T05:59:11.208Z,13.93
2023-02-17T06:01:13.416Z,13.70
2023-02-17T06:03:16.029Z,13.90
2023-02-17T06:05:18.181Z,13.63
2023-02-17T06:07:20.240Z,13.76
2023-02-17T06:09:22.228Z,13.66
2023-02-17T06:11:24.455Z,13.63
2023-02-17T06:13:26.430Z,13.56
2023-02-17T06:15:28.409Z,13.43
2023-02-17T06:17:30.380Z,13.51
2023-02-17T06:19:32.349Z,13.41
2023-02-17T06:21:34.304Z,13.45
2023-02-17T06:23:36.260Z,13.45
2023-02-17T06:25:38.302Z,13.41
2023-02-17T06:27:42.233Z,13.31
2023-02-17T06:29:44.929Z,13.20
2023-02-17T06:31:47.246Z,13.43
2023-02-17T06:33:49.311Z,13.54
2023-02-17T06:35:51.997Z,13.41
2023-02-17T06:37:54.004Z,13.39
2023-02-17T06:39:56.015Z,13.40
2023-02-17T06:41:57.986Z,13.18
2023-02-17T06:43:59.960Z,13.34
2023-02-17T06:46:01.981Z,13.46
2023-02-17T06:48:04.337Z,13.48
2023-02-17T06:50:07.712Z,13.53
2023-02-17T06:52:09.727Z,13.56
2023-02-17T06:54:11.718Z,13.51
2023-02-17T06:56:13.693Z,13.51
2023-02-17T06:58:15.673Z,13.55
2023-02-17T07:00:18.256Z,13.56
2023-02-17T07:02:20.349Z,13.59
2023-02-17T07:04:22.510Z,13.57
2023-02-17T07:06:25.230Z,13.50
2023-02-17T07:08:27.366Z,13.64
2023-02-17T07:10:30.061Z,13.54
2023-02-17T07:12:32.050Z,13.36
2023-02-17T07:14:35.419Z,13.56
2023-02-17T07:16:37.578Z,13.58
2023-02-17T07:18:40.093Z,13.49
2023-02-17T07:20:42.174Z,13.54
2023-02-17T07:22:44.338Z,13.56
2023-02-17T07:24:46.688Z,13.51
2023-02-17T07:26:49.263Z,13.43
2023-02-17T07:28:51.208Z,13.37
2023-02-17T07:30:53.322Z,13.28
2023-02-17T07:32:55.284Z,13.43
2023-02-17T07:34:57.256Z,13.38
2023-02-17T07:36:59.365Z,13.43
2023-02-17T07:39:01.394Z,13.47
2023-02-17T07:41:08.121Z,13.51
2023-02-17T07:43:10.128Z,13.47
2023-02-17T07:45:12.142Z,13.47
2023-02-17T07:47:14.187Z,13.48
2023-02-17T07:49:17.888Z,13.41
2023-02-17T07:51:22.385Z,13.48
2023-02-17T07:53:24.875Z,13.49
2023-02-17T07:55:26.935Z,13.46
2023-02-17T07:57:29.016Z,13.47
2023-02-17T07:59:31.032Z,13.55
2023-02-17T08:01:33.095Z,13.57
2023-02-17T08:03:35.193Z,13.51
2023-02-17T08:05:40.963Z,13.65
2023-02-17T08:07:43.013Z,13.68
2023-02-17T08:09:48.190Z,13.46
2023-02-17T08:11:53.444Z,13.43
2023-02-17T08:13:55.398Z,13.40
2023-02-17T08:15:57.428Z,13.39
2023-02-17T08:18:00.998Z,13.33
2023-02-17T08:20:08.839Z,13.35
2023-02-17T08:22:11.198Z,13.47
2023-02-17T08:24:13.247Z,13.42
2023-02-17T08:26:15.452Z,13.29
2023-02-17T08:28:18.042Z,13.23
2023-02-17T08:30:20.242Z,13.12
2023-02-17T08:32:22.408Z,13.35
2023-02-17T08:34:24.462Z,13.31
2023-02-17T08:36:27.817Z,13.36
2023-02-17T08:38:29.988Z,13.54
2023-02-17T08:40:32.543Z,13.30
2023-02-17T08:42:34.939Z,13.51
2023-02-17T08:44:37.534Z,13.52
2023-02-17T08:46:40.165Z,13.55
2023-02-17T08:48:43.672Z,13.58
2023-02-17T08:50:48.334Z,13.53
2023-02-17T08:52:50.364Z,13.43
2023-02-17T08:54:52.988Z,13.54
2023-02-17T08:56:55.144Z,13.55
2023-02-17T08:58:57.550Z,13.54
2023-02-17T09:01:00.111Z,13.49
2023-02-17T09:03:02.327Z,13.66
2023-02-17T09:05:05.944Z,13.64
2023-02-17T09:07:11.873Z,13.66
2023-02-17T09:09:16.886Z,13.68
2023-02-17T09:11:21.058Z,13.67
2023-02-17T09:13:23.212Z,13.64
2023-02-17T09:15:25.475Z,13.49
2023-02-17T09:17:27.724Z,13.65
2023-02-17T09:19:29.723Z,13.64
2023-02-17T09:21:32.028Z,13.65
2023-02-17T09:23:34.201Z,13.66
2023-02-17T09:25:36.313Z,13.61
2023-02-17T09:27:38.418Z,13.63
2023-02-17T09:29:41.030Z,13.72
2023-02-17T09:31:43.324Z,13.80
2023-02-17T09:33:45.941Z,13.69
2023-02-17T09:35:49.402Z,13.74
2023-02-17T09:37:51.793Z,13.70
2023-02-17T09:39:53.970Z,13.71
2023-02-17T09:41:57.984Z,13.64
2023-02-17T09:44:00.688Z,13.62
2023-02-17T09:46:10.375Z,13.70
2023-02-17T09:48:18.680Z,13.78
2023-02-17T09:50:26.342Z,13.90
2023-02-17T09:52:36.232Z,13.67
2023-02-17T09:54:52.564Z,13.85
2023-02-17T09:56:57.108Z,13.95
2023-02-17T09:59:02.522Z,13.80
2023-02-17T10:01:11.547Z,13.79
2023-02-17T10:03:18.398Z,13.61
2023-02-17T10:05:25.897Z,13.74
2023-02-17T10:07:35.038Z,13.62
2023-02-17T10:09:47.939Z,13.78
2023-02-17T10:11:56.247Z,13.65
2023-02-17T10:14:04.981Z,13.57
2023-02-17T10:16:14.260Z,13.61
2023-02-17T10:18:26.641Z,13.80
2023-02-17T10:20:40.367Z,13.93
2023-02-17T10:22:47.845Z,14.03
2023-02-17T10:24:50.119Z,13.86
2023-02-17T10:26:55.691Z,13.90
2023-02-17T10:29:05.740Z,13.99
2023-02-17T10:31:15.748Z,13.78
2023-02-17T10:33:21.381Z,13.85
2023-02-17T10:35:33.787Z,13.90
2023-02-17T10:37:41.132Z,13.87
2023-02-17T10:39:46.720Z,13.76
2023-02-17T10:41:52.006Z,13.74
2023-02-17T10:43:55.202Z,13.82
2023-02-17T10:46:00.140Z,13.82
2023-02-17T10:48:08.276Z,13.91
2023-02-17T10:50:16.488Z,13.91
2023-02-17T10:52:20.926Z,13.93
2023-02-17T10:54:27.457Z,13.94
2023-02-17T10:56:39.025Z,14.06
2023-02-17T10:58:45.595Z,14.12
2023-02-17T11:00:53.397Z,14.08
2023-02-17T11:02:55.511Z,14.20
2023-02-17T11:05:00.048Z,14.20
2023-02-17T11:07:03.822Z,14.22
2023-02-17T11:09:17.560Z,14.35
2023-02-17T11:11:22.678Z,14.22
2023-02-17T11:13:32.351Z,14.17
2023-02-17T11:15:43.470Z,14.34
2023-02-17T11:17:46.922Z,14.26
2023-02-17T11:19:55.575Z,14.15
2023-02-17T11:22:00.801Z,14.44
2023-02-17T11:24:06.187Z,14.33
2023-02-17T11:26:12.093Z,14.40
2023-02-17T11:28:24.181Z,14.33
2023-02-17T11:30:28.550Z,14.33
2023-02-17T11:32:33.116Z,14.11
2023-02-17T11:34:38.665Z,14.35
2023-02-17T11:36:41.210Z,14.53
2023-02-17T11:38:46.387Z,14.59
2023-02-17T11:41:00.112Z,14.42
2023-02-17T11:43:06.247Z,14.58
2023-02-17T11:45:17.498Z,14.55
2023-02-17T11:47:23.047Z,14.69
2023-02-17T11:49:28.602Z,14.51
2023-02-17T11:51:34.379Z,14.71
2023-02-17T11:53:46.686Z,14.48
2023-02-17T11:55:52.284Z,14.60
2023-02-17T11:58:01.627Z,14.62
2023-02-17T12:00:10.012Z,14.65
2023-02-17T12:02:15.666Z,14.55
2023-02-17T12:04:21.711Z,14.65
2023-02-17T12:06:30.518Z,14.55
2023-02-17T12:08:34.319Z,14.72
2023-02-17T12:10:39.843Z,14.76
2023-02-17T12:12:46.361Z,14.73
2023-02-17T12:14:50.379Z,14.88
2023-02-17T12:17:00.624Z,14.71
2023-02-17T12:19:07.201Z,14.69
2023-02-17T12:21:20.959Z,14.82
2023-02-17T12:23:31.960Z,14.79
2023-02-17T12:25:40.440Z,14.83
2023-02-17T12:27:48.762Z,14.89
2023-02-17T12:29:57.075Z,14.91
2023-02-17T12:32:02.777Z,14.94
2023-02-17T12:34:11.232Z,14.89
2023-02-17T12:36:17.135Z,14.88
2023-02-17T12:38:25.909Z,14.90
2023-02-17T12:40:31.475Z,14.92
2023-02-17T12:42:37.522Z,14.95
2023-02-17T12:44:44.523Z,15.18
2023-02-17T12:46:51.062Z,15.00
2023-02-17T12:48:59.304Z,15.13
2023-02-17T12:51:12.570Z,15.19
2023-02-17T12:53:34.625Z,15.24
2023-02-17T12:55:41.020Z,15.39
2023-02-17T12:57:49.458Z,15.28
2023-02-17T12:59:53.736Z,15.45
2023-02-17T13:02:02.398Z,15.35
2023-02-17T13:04:05.284Z,15.30
2023-02-17T13:06:19.011Z,15.36
2023-02-17T13:08:24.656Z,15.43
2023-02-17T13:10:27.509Z,15.52
2023-02-17T13:12:32.984Z,15.70
2023-02-17T13:14:41.463Z,15.70
2023-02-17T13:16:46.228Z,15.70
2023-02-17T13:18:51.173Z,15.76
2023-02-17T13:20:55.617Z,15.87
2023-02-17T13:23:03.891Z,15.78
2023-02-17T13:25:07.279Z,15.80
2023-02-17T13:27:12.483Z,15.84
2023-02-17T13:29:19.666Z,16.00
2023-02-17T13:31:25.170Z,15.95
2023-02-17T13:33:31.103Z,15.95
2023-02-17T13:35:37.204Z,15.81
2023-02-17T13:37:44.267Z,15.82
2023-02-17T13:39:46.836Z,15.81
2023-02-17T13:41:49.509Z,15.80
2023-02-17T13:43:51.823Z,15.65
2023-02-17T13:46:00.386Z,15.67
2023-02-17T13:48:09.041Z,15.86
2023-02-17T13:50:17.498Z,15.79
2023-02-17T13:52:24.866Z,15.86
2023-02-17T13:54:26.922Z,15.64
2023-02-17T13:56:33.700Z,15.81
2023-02-17T13:58:38.707Z,15.87
2023-02-17T14:00:44.276Z,16.05
2023-02-17T14:02:49.471Z,16.00
2023-02-17T14:04:54.656Z,15.99
2023-02-17T14:07:00.368Z,16.25
2023-02-17T14:09:15.340Z,16.27
2023-02-17T14:11:20.443Z,16.34
2023-02-17T14:13:24.760Z,16.39
2023-02-17T14:15:28.995Z,16.46
2023-02-17T14:17:33.422Z,16.60
2023-02-17T14:19:42.238Z,16.50
2023-02-17T14:21:56.859Z,16.55
2023-02-17T14:23:59.950Z,16.63
2023-02-17T14:26:10.420Z,16.31
2023-02-17T14:28:18.801Z,16.50
2023-02-17T14:30:27.041Z,16.56
2023-02-17T14:32:31.835Z,16.51
2023-02-17T14:34:36.059Z,16.45
2023-02-17T14:36:39.955Z,16.52
2023-02-17T14:38:42.282Z,16.47
2023-02-17T14:40:44.356Z,16.49
2023-02-17T14:42:47.118Z,16.38
2023-02-17T14:44:49.304Z,16.26
2023-02-17T14:46:51.476Z,16.41
2023-02-17T14:48:54.573Z,16.41
2023-02-17T14:50:57.847Z,16.35
2023-02-17T14:52:59.898Z,16.40
2023-02-17T14:55:01.993Z,16.21
2023-02-17T14:57:07.552Z,16.30
2023-02-17T14:59:10.292Z,16.02
2023-02-17T15:01:15.687Z,16.14
2023-02-17T15:03:18.236Z,16.09
2023-02-17T15:05:20.669Z,16.10
2023-02-17T15:07:23.293Z,16.03
2023-02-17T15:09:30.502Z,16.08
2023-02-17T15:11:37.128Z,16.17
2023-02-17T15:13:40.347Z,16.10
2023-02-17T15:15:45.393Z,16.13
2023-02-17T15:17:48.329Z,16.05
2023-02-17T15:19:50.429Z,16.11
2023-02-17T15:21:52.750Z,16.16
2023-02-17T15:23:56.390Z,16.03
2023-02-17T15:25:58.705Z,16.20
2023-02-17T15:28:00.860Z,16.22
2023-02-17T15:30:03.037Z,16.17
2023-02-17T15:32:15.200Z,16.23
2023-02-17T15:34:21.990Z,16.19
2023-02-17T15:36:25.466Z,16.15
2023-02-17T15:38:27.914Z,16.17
2023-02-17T15:40:31.027Z,16.15
2023-02-17T15:42:33.200Z,16.18
2023-02-17T15:44:43.357Z,16.16
2023-02-17T15:46:46.429Z,16.08
2023-02-17T15:48:49.980Z,16.13
2023-02-17T15:50:53.135Z,16.05
2023-02-17T15:52:55.339Z,15.97
2023-02-17T15:54:57.510Z,16.09
2023-02-17T15:57:00.672Z,16.03
2023-02-17T15:59:10.901Z,16.00
2023-02-17T16:01:21.159Z,15.91
2023-02-17T16:03:23.235Z,15.80
2023-02-17T16:05:27.978Z,15.97
2023-02-17T16:07:30.168Z,15.95
2023-02-17T16:09:32.488Z,16.00
2023-02-17T16:11:35.000Z,16.06
2023-02-17T16:13:37.204Z,16.08
2023-02-17T16:15:39.279Z,16.00
2023-02-17T16:17:41.874Z,16.08
2023-02-17T16:19:44.213Z,15.98
2023-02-17T16:21:46.314Z,16.06
2023-02-17T16:23:48.382Z,15.92
2023-02-17T16:25:51.047Z,16.03
2023-02-17T16:27:53.748Z,15.92
2023-02-17T16:29:55.972Z,15.62
2023-02-17T16:31:58.116Z,15.77
2023-02-17T16:34:00.582Z,15.64
2023-02-17T16:36:03.249Z,15.69
2023-02-17T16:38:12.986Z,15.66
2023-02-17T16:40:18.379Z,15.59
2023-02-17T16:42:20.748Z,15.74
2023-02-17T16:44:23.819Z,15.71
2023-02-17T16:46:31.453Z,15.67
2023-02-17T16:48:37.183Z,15.58
2023-02-17T16:50:39.409Z,15.53
2023-02-17T16:52:41.585Z,15.62
2023-02-17T16:54:43.762Z,15.54
2023-02-17T16:56:49.724Z,15.45
2023-02-17T16:58:51.830Z,15.43
2023-02-17T17:00:56.044Z,15.40
2023-02-17T17:02:59.240Z,15.40
2023-02-17T17:05:01.319Z,15.10
2023-02-17T17:07:03.729Z,15.38
2023-02-17T17:09:06.746Z,15.28
2023-02-17T17:11:13.684Z,15.18
2023-02-17T17:13:15.864Z,15.18
2023-02-17T17:15:19.728Z,15.07
2023-02-17T17:17:21.924Z,15.10
2023-02-17T17:19:24.394Z,15.12
2023-02-17T17:21:26.621Z,15.16
2023-02-17T17:23:28.948Z,15.19
2023-02-17T17:25:33.528Z,15.24
2023-02-17T17:27:37.123Z,15.28
2023-02-17T17:29:39.182Z,15.13
2023-02-17T17:31:41.553Z,15.26
2023-02-17T17:33:43.926Z,15.20
2023-02-17T17:35:45.972Z,15.29
2023-02-17T17:37:48.456Z,15.33
2023-02-17T17:39:50.560Z,15.26
2023-02-17T17:41:53.255Z,15.27
2023-02-17T17:43:56.498Z,15.24
2023-02-17T17:45:58.651Z,15.22
2023-02-17T17:48:00.809Z,15.18
2023-02-17T17:50:03.063Z,15.16
2023-02-17T17:52:05.423Z,15.11
2023-02-17T17:54:08.114Z,15.19
2023-02-17T17:56:16.516Z,15.07
2023-02-17T17:58:18.672Z,15.21
2023-02-17T18:00:21.080Z,15.08
2023-02-17T18:02:23.353Z,15.17
2023-02-17T18:04:25.547Z,15.16
2023-02-17T18:06:34.899Z,15.16
2023-02-17T18:08:37.406Z,15.10
2023-02-17T18:10:40.760Z,15.10
2023-02-17T18:12:45.788Z,15.17
2023-02-17T18:14:52.617Z,15.20
2023-02-17T18:16:55.038Z,15.11
2023-02-17T18:18:59.629Z,15.11
2023-02-17T18:21:01.769Z,15.02
2023-02-17T18:23:04.021Z,14.98
2023-02-17T18:25:06.903Z,14.78
2023-02-17T18:27:09.005Z,14.82
2023-02-17T18:29:11.196Z,14.86
2023-02-17T18:31:15.449Z,14.73
2023-02-17T18:33:17.752Z,14.78
2023-02-17T18:35:20.920Z,14.79
2023-02-17T18:37:22.989Z,14.88
2023-02-17T18:39:25.301Z,14.94
2023-02-17T18:41:29.768Z,14.89
2023-02-17T18:43:32.079Z,14.89
2023-02-17T18:45:34.314Z,14.89
2023-02-17T18:47:36.471Z,14.91
2023-02-17T18:49:38.655Z,14.89
2023-02-17T18:51:41.014Z,14.95
2023-02-17T18:53:43.395Z,14.89
2023-02-17T18:55:45.476Z,14.80
2023-02-17T18:57:47.727Z,14.83
2023-02-17T18:59:50.528Z,14.87
2023-02-17T19:01:52.614Z,14.75
2023-02-17T19:03:55.660Z,14.79
2023-02-17T19:05:57.896Z,14.83
2023-02-17T19:08:00.050Z,14.79
2023-02-17T19:10:02.525Z,14.85
2023-02-17T19:12:06.073Z,14.79
2023-02-17T19:14:08.224Z,14.76
2023-02-17T19:16:15.237Z,14.76
2023-02-17T19:18:17.413Z,14.87
2023-02-17T19:20:19.800Z,14.75
2023-02-17T19:22:21.963Z,14.87
2023-02-17T19:24:24.124Z,14.89
2023-02-17T19:26:26.209Z,14.86
2023-02-17T19:28:28.642Z,14.76
2023-02-17T19:30:30.894Z,14.77
2023-02-17T19:32:32.988Z,14.86
2023-02-17T19:34:36.120Z,14.82
2023-02-17T19:36:38.153Z,14.84
2023-02-17T19:38:40.247Z,14.67
2023-02-17T19:40:42.544Z,14.89
2023-02-17T19:42:44.643Z,14.83
2023-02-17T19:44:47.092Z,14.88
2023-02-17T19:46:49.351Z,14.84
2023-02-17T19:48:51.555Z,14.98
2023-02-17T19:50:59.841Z,14.83
2023-02-17T19:53:02.072Z,14.87
2023-02-17T19:55:05.253Z,14.80
2023-02-17T19:57:07.323Z,14.75
2023-02-17T19:59:09.415Z,14.92
2023-02-17T20:01:15.410Z,14.91
2023-02-17T20:03:17.736Z,14.86
2023-02-17T20:05:19.928Z,14.93
2023-02-17T20:07:22.080Z,15.01
2023-02-17T20:09:24.391Z,15.01
2023-02-17T20:11:27.167Z,14.93
2023-02-17T20:13:34.708Z,14.98
2023-02-17T20:15:42.790Z,14.82
2023-02-17T20:17:45.101Z,14.80
2023-02-17T20:19:47.369Z,14.81
2023-02-17T20:21:49.758Z,14.86
2023-02-17T20:23:52.737Z,14.87
2023-02-17T20:25:55.584Z,14.87
2023-02-17T20:27:58.649Z,14.97
2023-02-17T20:30:02.213Z,14.96
2023-02-17T20:32:04.665Z,14.94
2023-02-17T20:34:09.867Z,14.97
2023-02-17T20:36:12.462Z,14.92
2023-02-17T20:38:16.262Z,14.97
2023-02-17T20:40:18.381Z,14.91
2023-02-17T20:42:20.748Z,14.83
2023-02-17T20:44:27.508Z,14.91
2023-02-17T20:46:31.863Z,14.86
2023-02-17T20:48:34.218Z,14.74
2023-02-17T20:50:37.302Z,14.87
2023-02-17T20:52:39.324Z,14.90
2023-02-17T20:54:41.722Z,14.83
2023-02-17T20:56:46.445Z,14.80
2023-02-17T20:58:49.095Z,14.81
2023-02-17T21:00:51.354Z,14.77
2023-02-17T21:02:53.647Z,14.83
2023-02-17T21:04:55.753Z,14.80
2023-02-17T21:06:58.966Z,14.82
2023-02-17T21:09:06.714Z,14.81
2023-02-17T21:11:08.783Z,14.63
2023-02-17T21:13:10.847Z,14.75
2023-02-17T21:15:13.780Z,14.76
2023-02-17T21:17:16.038Z,14.87
2023-02-17T21:19:19.672Z,14.65
2023-02-17T21:21:23.836Z,14.69
2023-02-17T21:23:26.221Z,14.52
2023-02-17T21:25:28.392Z,14.59
2023-02-17T21:27:30.851Z,14.57
2023-02-17T21:29:33.102Z,14.62
2023-02-17T21:31:36.202Z,14.51
2023-02-17T21:33:42.320Z,14.43
2023-02-17T21:35:44.540Z,14.45
2023-02-17T21:37:46.681Z,14.39
2023-02-17T21:39:48.904Z,14.44
2023-02-17T21:41:51.634Z,14.51
2023-02-17T21:43:57.572Z,14.48
2023-02-17T21:45:59.815Z,14.40
2023-02-17T21:48:02.022Z,14.40
2023-02-17T21:50:04.289Z,14.44
2023-02-17T21:52:07.292Z,14.43
2023-02-17T21:54:10.623Z,14.37
2023-02-17T21:56:12.868Z,14.41
2023-02-17T21:58:15.169Z,14.38
2023-02-17T22:00:17.564Z,14.39
2023-02-17T22:02:19.810Z,14.45
2023-02-17T22:04:22.242Z,14.44
2023-02-17T22:06:27.967Z,14.36
2023-02-17T22:08:30.526Z,14.28
2023-02-17T22:10:37.556Z,14.35
2023-02-17T22:12:39.668Z,14.35
2023-02-17T22:14:41.878Z,14.16
2023-02-17T22:16:45.155Z,14.27
2023-02-17T22:18:47.247Z,14.24
2023-02-17T22:20:49.389Z,14.16
2023-02-17T22:22:51.795Z,14.16
2023-02-17T22:24:53.909Z,14.11
2023-02-17T22:26:56.127Z,14.05
2023-02-17T22:28:58.716Z,14.08
2023-02-17T22:31:01.067Z,13.94
2023-02-17T22:33:04.234Z,13.98
2023-02-17T22:35:06.919Z,13.86
2023-02-17T22:37:08.980Z,14.06
2023-02-17T22:39:11.163Z,13.97
2023-02-17T22:41:15.969Z,13.85
2023-02-17T22:43:17.996Z,13.85
2023-02-17T22:45:20.085Z,13.99
2023-02-17T22:47:22.297Z,13.95
2023-02-17T22:49:24.413Z,13.78
2023-02-17T22:51:30.927Z,13.96
2023-02-17T22:53:34.062Z,13.99
2023-02-17T22:55:36.275Z,14.05
2023-02-17T22:57:38.337Z,14.00
2023-02-17T22:59:40.524Z,14.01
2023-02-17T23:01:42.689Z,14.01
2023-02-17T23:03:46.057Z,14.05
2023-02-17T23:05:48.112Z,13.95
2023-02-17T23:07:52.922Z,13.97
2023-02-17T23:09:55.176Z,13.92
2023-02-17T23:11:58.698Z,14.00
2023-02-17T23:14:00.735Z,13.92
2023-02-17T23:16:03.163Z,13.89
2023-02-17T23:18:08.569Z,13.97
2023-02-17T23:20:11.252Z,13.83
2023-02-17T23:22:16.396Z,13.95
2023-02-17T23:24:20.073Z,13.91
2023-02-17T23:26:22.172Z,13.76
2023-02-17T23:28:25.940Z,13.94
2023-02-17T23:30:28.404Z,13.98
2023-02-17T23:32:30.532Z,14.07
2023-02-17T23:34:33.951Z,13.96
2023-02-17T23:36:38.412Z,14.01
2023-02-17T23:38:40.572Z,14.08
2023-02-17T23:40:43.060Z,14.09
2023-02-17T23:42:45.610Z,14.04
2023-02-17T23:44:47.684Z,14.00
2023-02-17T23:46:50.056Z,14.14
2023-02-17T23:48:52.140Z,14.12
2023-02-17T23:50:58.496Z,14.15
2023-02-17T23:53:00.570Z,14.21
2023-02-17T23:55:02.808Z,14.25
2023-02-17T23:57:05.007Z,14.24
2023-02-17T23:59:07.167Z,14.33
